< < Back
Terminal Aerodrome Forecast


Current Version              Previous Versions:   1  2  3  4  5  6  7  8  9  

Terminal Aerodrome Forecast

537
FTUS42 KTAE 271120
TAFVLD
TAF
KVLD 271120Z 2712/2812 00000KT P6SM SCT250
     FM271500 21004KT P6SM FEW050 SCT250=

Latest METAR

630
SAUS70 KWBC 271100 RRK
MTRVLD
METAR KVLD 271053Z AUTO 00000KT 9SM CLR 23/22 A3007 RMK AO2 SLP188
T02280222


USA.gov is the U.S. government's official web portal to all federal, state and local government web resources and services.